メインページ
METAR-TAF:

METAR-TAF

空港 :

Hope, ブリティッシュコロンビア州, カナダ

緯度: 49-22N, 経度: 121-29W, 海抜: 39m

現時点の気象観測

当レポートは1時間15分前の15:00(UTC)に作成
無風
気温 16°C
湿度 77%
気圧 1014 hPa
視程: 14.5km
高度7000ftの千切れ雲あり

METAR: CYHE 111500Z AUTO 00000KT 9SM BKN070 16/12 A2993 RMK SLP135 DENSITY ALT 200FT

時間: 09:15 (16:15 UTC)


TAF: 見つかりません

4,000以上の空港の気象観測と天気予報(METAR報とTAF報)

利用可能な観測所は地図上に黄色い丸と赤い丸で示す。

丸の上にカーソルを重ねると観測所名を参照できる。

次にクリックすると気象観測と天気予報を参照できる。

マップの切り替え:黒色「×」印の緑ボタンをクリックして拡大、「-」印の緑ボタンをクリックして縮小、緑色の三角印をクリックして隣りの地図に切り替え


METAR-TAF: